地図

経路データ

SID SEASON NUMBER BASIN SUBBASIN NAME ISO_TIME NATURE LAT LON WMO_WIND WMO_PRES WMO_AGENCY TRACK_TYPE DIST2LAND LANDFALL IFLAG USA_AGENCY USA_ATCF_ID USA_LAT USA_LON USA_RECORD USA_STATUS USA_WIND USA_PRES USA_SSHS USA_R34_NE USA_R34_SE USA_R34_SW USA_R34_NW USA_R50_NE USA_R50_SE USA_R50_SW USA_R50_NW USA_R64_NE USA_R64_SE USA_R64_SW USA_R64_NW USA_POCI USA_ROCI USA_RMW USA_EYE TOKYO_LAT TOKYO_LON TOKYO_GRADE TOKYO_WIND TOKYO_PRES TOKYO_R50_DIR TOKYO_R50_LONG TOKYO_R50_SHORT TOKYO_R30_DIR TOKYO_R30_LONG TOKYO_R30_SHORT TOKYO_LAND CMA_LAT CMA_LON CMA_CAT CMA_WIND CMA_PRES HKO_LAT HKO_LON HKO_CAT HKO_WIND HKO_PRES NEWDELHI_LAT NEWDELHI_LON NEWDELHI_GRADE NEWDELHI_WIND NEWDELHI_PRES NEWDELHI_CI NEWDELHI_DP NEWDELHI_POCI REUNION_LAT REUNION_LON REUNION_TYPE REUNION_WIND REUNION_PRES REUNION_TNUM REUNION_CI REUNION_RMW REUNION_R34_NE REUNION_R34_SE REUNION_R34_SW REUNION_R34_NW REUNION_R50_NE REUNION_R50_SE REUNION_R50_SW REUNION_R50_NW REUNION_R64_NE REUNION_R64_SE REUNION_R64_SW REUNION_R64_NW BOM_LAT BOM_LON BOM_TYPE BOM_WIND BOM_PRES BOM_TNUM BOM_CI BOM_RMW BOM_R34_NE BOM_R34_SE BOM_R34_SW BOM_R34_NW BOM_R50_NE BOM_R50_SE BOM_R50_SW BOM_R50_NW BOM_R64_NE BOM_R64_SE BOM_R64_SW BOM_R64_NW BOM_ROCI BOM_POCI BOM_EYE BOM_POS_METHOD BOM_PRES_METHOD NADI_LAT NADI_LON NADI_CAT NADI_WIND NADI_PRES WELLINGTON_LAT WELLINGTON_LON WELLINGTON_WIND WELLINGTON_PRES DS824_LAT DS824_LON DS824_STAGE DS824_WIND DS824_PRES TD9636_LAT TD9636_LON TD9636_STAGE TD9636_WIND TD9636_PRES TD9635_LAT TD9635_LON TD9635_WIND TD9635_PRES TD9635_ROCI NEUMANN_LAT NEUMANN_LON NEUMANN_CLASS NEUMANN_WIND NEUMANN_PRES MLC_LAT MLC_LON MLC_CLASS MLC_WIND MLC_PRES USA_GUST BOM_GUST BOM_GUST_PER REUNION_GUST REUNION_GUST_PER USA_SEAHGT USA_SEARAD_NE USA_SEARAD_SE USA_SEARAD_SW USA_SEARAD_NW STORM_SPEED STORM_DIR
1987053S15127 1987 19 SI WA ELSIE 1987-02-21 12:00:00 NR -15.1000 127.400 main 0 0 O_________O___ jtwc_sh SH181987 -15.1000 127.400 25 -1 -15.1000 127.400 1 25 11 265
1987053S15127 1987 19 SI WA ELSIE 1987-02-21 15:00:00 NR -15.1467 126.841 main 0 0 P_________P___ SH181987 -15.1502 126.863 25 -1 -15.1432 126.820 1 25 11 265
1987053S15127 1987 19 SI WA ELSIE 1987-02-21 18:00:00 NR -15.1943 126.271 main 0 0 O_________P___ jtwc_sh SH181987 -15.2000 126.300 25 -1 -15.1886 126.242 1 25 11 265
1987053S15127 1987 19 SI WA ELSIE 1987-02-21 21:00:00 NR -15.2448 125.684 main 0 0 P_________P___ SH181987 -15.2500 125.700 25 -1 -15.2396 125.668 1 25 12 268
1987053S15127 1987 19 SI WA ELSIE 1987-02-22 00:00:00 TS -15.2400 125.080 30 995 bom main 0 0 O_____O___O_O_ jtwc_sh SH181987 -15.3000 125.100 25 -1 -15.0000 125.000 20 30 995 2.50000 85 3 -15.3000 125.100 1 25 -15.0000 125.000 TC 40 995 11 270
1987053S15127 1987 19 SI WA ELSIE 1987-02-22 03:00:00 TS -15.2431 124.499 30 994 bom main 31 31 P_____O___P_P_ SH181987 -15.3424 124.535 27 -1 -15.0000 124.500 20 30 994 2.50000 184 3 -15.3716 124.540 1 26 -15.0305 124.345 TC 40 994 11 268
1987053S15127 1987 19 SI WA ELSIE 1987-02-22 06:00:00 TS -15.2856 123.914 35 993 bom main 63 63 O_____O___P_O_ jtwc_sh SH181987 -15.4000 124.000 30 -1 -15.1000 123.800 30 35 993 3.00000 328 3 -15.4498 123.998 1 27 -15.1000 123.800 TC 40 993 10 262
1987053S15127 1987 19 SI WA ELSIE 1987-02-22 09:00:00 TS -15.3888 123.477 40 990 bom main 92 92 P_____O___P_P_ SH181987 -15.4924 123.485 30 -1 -15.3000 123.500 30 40 990 3.00000 367 3 -15.5280 123.481 1 28 -15.2348 123.440 TC 47 989 8 255
1987053S15127 1987 19 SI WA ELSIE 1987-02-22 12:00:00 TS -15.5000 123.100 45 986 bom main 101 100 O_____O___O_O_ jtwc_sh SH181987 -15.6000 123.000 30 -1 -15.4000 123.200 30 45 986 3.00000 334 3 -15.6000 123.000 1 30 -15.4000 123.200 TC 55 986 7 250
1987053S15127 1987 19 SI WA ELSIE 1987-02-22 15:00:00 TS -15.6437 122.762 50 981 bom main 101 92 P_____O___P_P_ SH181987 -15.7149 122.528 30 -1 -15.6000 123.000 30 50 981 3.50000 274 3 -15.6651 122.528 1 31 -15.5949 122.993 TC 57 983 7 250
1987053S15127 1987 19 SI WA ELSIE 1987-02-22 18:00:00 TS -15.7306 122.449 50 980 bom main 104 104 O_____O___P_O_ jtwc_sh SH181987 -15.8000 122.100 30 -1 -15.7000 122.800 30 50 980 3.50000 269 3 -15.7223 122.095 1 32 -15.7000 122.800 TC 60 980 6 267
1987053S15127 1987 19 SI WA ELSIE 1987-02-22 21:00:00 TS -15.6715 122.119 55 979 bom main 123 123 P_____O___P_P_ SH181987 -15.8149 121.720 32 -1 -15.5000 122.500 30 55 979 4.00000 377 3 -15.7684 121.715 1 33 -15.6025 122.542 TC 62 979 6 283
1987053S15127 1987 19 SI WA ELSIE 1987-02-23 00:00:00 TS -15.6000 121.850 55 978 bom main 146 146 O_____O___O_O_ jtwc_sh SH181987 -15.8000 121.400 35 0 -15.4000 122.300 30 55 978 4.00000 292 3 -15.8000 121.400 2 35 -15.4000 122.300 TC 65 978 5 291
1987053S15127 1987 19 SI WA ELSIE 1987-02-23 03:00:00 TS -15.4863 121.615 55 977 bom main 177 177 P_____O___P_P_ SH181987 -15.8000 121.113 35 0 -15.2000 122.100 30 55 977 4.00000 355 3 -15.7978 121.111 2 36 -15.1475 122.135 TC 65 977 4 298
1987053S15127 1987 19 SI WA ELSIE 1987-02-23 06:00:00 TS -15.3962 121.448 60 976 bom main 201 201 O_____O___P_O_ jtwc_sh SH181987 -15.8000 120.900 35 0 -15.0000 122.000 30 60 976 4.00000 269 3 -15.7846 120.892 2 37 -15.0000 122.000 TC 65 976 3 272
1987053S15127 1987 19 SI WA ELSIE 1987-02-23 09:00:00 TS -15.4779 121.286 70 966 bom main 201 201 P_____O___P_P_ SH181987 -15.7925 120.748 37 0 -15.2000 121.800 40 70 966 4.50000 280 3 -15.7791 120.752 2 38 -15.1400 121.843 TC 72 970 3 230
1987053S15127 1987 19 SI WA ELSIE 1987-02-23 12:00:00 TS -15.6000 121.200 70 964 bom main 201 193 O_____O___O_O_ jtwc_sh SH181987 -15.8000 120.700 40 0 -15.4000 121.700 40 70 964 4.50000 319 3 -15.8000 120.700 2 40 -15.4000 121.700 TC 80 964 3 212
1987053S15127 1987 19 SI WA ELSIE 1987-02-23 15:00:00 TS -15.6917 121.146 75 960 bom main 200 185 P_____V___P_P_ SH181987 -15.8275 120.763 40 0 -15.5000 121.500 40 75 960 4.50000 305 3 -15.8469 120.743 2 41 -15.5925 121.578 TC 85 960 3 182
1987053S15127 1987 19 SI WA ELSIE 1987-02-23 18:00:00 TS -15.8563 121.192 75 957 bom main 178 154 O_____O___P_O_ jtwc_sh SH181987 -15.9000 120.900 40 0 -15.8000 121.500 40 75 957 4.50000 292 3 -15.9250 120.868 2 42 -15.8000 121.500 TC 90 957 4 164
1987053S15127 1987 19 SI WA ELSIE 1987-02-23 21:00:00 TS -16.0795 121.265 80 954 bom main 154 146 P_____O___P_P_ SH181987 -16.0275 121.043 42 0 -16.2000 121.500 40 80 954 5.00000 292 3 -16.0407 121.033 2 43 -16.0500 121.485 TC 92 955 4 159
1987053S15127 1987 19 SI WA ELSIE 1987-02-24 00:00:00 TS -16.2500 121.350 80 953 bom main 139 123 O_____O___O_O_ jtwc_sh SH181987 -16.2000 121.200 45 0 -16.3000 121.500 40 80 953 5.00000 274 3 -16.2000 121.200 2 45 -16.3000 121.500 TC 95 953 4 157
1987053S15127 1987 19 SI WA ELSIE 1987-02-24 03:00:00 TS -16.4383 121.426 80 952 bom main 123 101 P_____O___P_P_ SH181987 -16.3775 121.365 45 0 -16.5000 121.500 40 80 952 5.00000 323 11 6 -16.3906 121.339 2 45 -16.4850 121.500 TC 97 952 4 162
1987053S15127 1987 19 SI WA ELSIE 1987-02-24 06:00:00 TS -16.6563 121.492 80 951 bom main 96 81 O_____O___P_O_ jtwc_sh SH181987 -16.6000 121.500 45 0 -16.7000 121.500 40 80 951 5.00000 259 10 6 -16.6250 121.467 2 45 -16.7000 121.500 TC 100 951 6 169
1987053S15127 1987 19 SI WA ELSIE 1987-02-24 09:00:00 TS -16.9792 121.539 80 950 bom main 81 62 P_____O___P_P_ SH181987 -16.8775 121.587 45 0 -17.1000 121.500 40 80 950 5.00000 265 11 6 -16.8969 121.561 2 45 -17.0425 121.507 TC 100 950 7 175
1987053S15127 1987 19 SI WA ELSIE 1987-02-24 12:00:00 TS -17.3000 121.550 85 949 bom main 62 62 O_____O___O_O_ jtwc_sh SH181987 -17.2000 121.600 45 0 -17.4000 121.500 40 85 949 5.00000 313 12 6 -17.2000 121.600 2 45 -17.4000 121.500 TC 100 949 6 182
1987053S15127 1987 19 SI WA ELSIE 1987-02-24 15:00:00 TS -17.5776 121.513 85 948 bom main 63 63 P_____O___P_P_ SH181987 -17.5425 121.523 47 0 -17.6000 121.500 40 85 948 5.00000 404 10 6 -17.5254 121.550 2 47 -17.6425 121.480 TC 100 948 6 193
1987053S15127 1987 19 SI WA ELSIE 1987-02-24 18:00:00 TS -17.8944 121.411 85 947 bom main 76 61 O_____V___P_O_ jtwc_sh SH181987 -17.9000 121.400 50 0 -17.9000 121.400 40 85 947 5.00000 388 12 6 -17.8776 121.446 2 50 -17.9000 121.400 TC 100 947 7 201
1987053S15127 1987 19 SI WA ELSIE 1987-02-24 21:00:00 TS -18.2709 121.232 85 946 bom main 62 53 P_____O___P_P_ SH181987 -18.2500 121.300 52 0 -18.3000 121.100 40 85 946 5.00000 373 12 6 -18.2410 121.319 2 52 -18.2926 121.208 TC 102 946 8 201
1987053S15127 1987 19 SI WA ELSIE 1987-02-25 00:00:00 TS -18.6500 121.100 90 945 bom main 63 53 O_____O___O_O_ jtwc_sh SH181987 -18.6000 121.200 55 0 -18.7000 121.000 40 90 945 5.50000 307 9 6 -18.6000 121.200 2 55 -18.7000 121.000 TC 105 945 7 199
1987053S15127 1987 19 SI WA ELSIE 1987-02-25 03:00:00 TS -18.9662 120.986 90 943 bom main 46 30 P_____O___P_P_ SH181987 -18.9575 121.085 57 0 -19.0000 120.900 40 90 943 5.50000 409 6 -18.8996 121.096 2 55 -19.0075 120.862 TC 107 943 7 197
1987053S15127 1987 19 SI WA ELSIE 1987-02-25 06:00:00 TS -19.2743 120.903 100 941 bom main 30 0 O_____O___P_O_ jtwc_sh SH181987 -19.3000 121.000 60 0 -19.3000 120.800 40 100 941 6.00000 280 6 -19.1974 121.011 2 55 -19.3000 120.800 TC 110 941 6 188
1987053S15127 1987 19 SI WA ELSIE 1987-02-25 09:00:00 TS -19.5929 120.890 100 940 bom main 0 0 P_____O___P_P_ SH181987 -19.5925 120.963 57 0 -19.6000 120.800 40 100 940 6.00000 238 3 3 -19.5214 120.971 2 55 -19.6575 120.827 TC 95 941 7 176
1987053S15127 1987 19 SI WA ELSIE 1987-02-25 12:00:00 TS -19.9500 120.950 90 941 bom main 0 0 O_____V___O_O_ jtwc_sh SH181987 -19.9000 121.000 55 0 -20.0000 120.900 40 90 941 242 3 -19.9000 121.000 2 55 -20.0000 120.900 TC 80 941 7 168
1987053S15127 1987 19 SI WA ELSIE 1987-02-25 15:00:00 TS -20.3023 121.051 85 941 bom main 0 0 P_____O___P_P_ SH181987 -20.2475 121.113 50 0 -20.3000 121.000 40 85 941 247 3 -20.4043 121.147 2 51 -20.2575 120.943 TC 67 948 7 165
1987053S15127 1987 19 SI WA ELSIE 1987-02-25 18:00:00 TS -20.6621 121.156 75 955 bom main 0 0 O_____O___P_O_ jtwc_sh SH181987 -20.7000 121.300 45 0 -20.5000 121.000 40 75 955 409 3 -20.9579 121.360 2 47 -20.5000 121.000 TC 55 955 8 165
1987053S15127 1987 19 SI WA ELSIE 1987-02-25 21:00:00 TS -21.0722 121.269 65 965 bom main 0 0 P_____O___P_P_ SH181987 -21.3051 121.537 42 0 -20.8000 121.000 40 65 965 296 3 -21.5075 121.594 2 43 -20.7925 121.078 TC 50 962 8 162
1987053S15127 1987 19 SI WA ELSIE 1987-02-26 00:00:00 TS -21.4462 121.431 60 970 bom main 0 0 O_____O___O_O_ jtwc_sh SH181987 -22.0000 121.800 40 0 -21.1000 121.200 30 60 970 323 3 -22.0000 121.800 6 40 -21.1000 121.200 TC 45 970 7 159
1987053S15127 1987 19 SI WA ELSIE 1987-02-26 03:00:00 TS -21.7569 121.548 55 975 bom main 0 0 ______O___P_P_ SH181987 -1 -21.5000 121.400 30 55 975 328 3 -22.4007 121.867 6 -21.3700 121.378 TC 40 975 7 157
1987053S15127 1987 19 SI WA ELSIE 1987-02-26 06:00:00 TS -22.0447 121.702 50 980 bom main 0 0 ______O___P_O_ -1 -21.7000 121.600 30 50 980 232 3 -22.7342 121.906 6 -21.7000 121.600 TC 35 980 8 164
1987053S15127 1987 19 SI WA ELSIE 1987-02-26 09:00:00 TS -22.5335 121.791 45 980 bom main 0 0 ______O___P_P_ -1 -22.4000 121.600 30 45 980 286 3 -23.0006 121.967 6 -22.1998 121.805 TC 32 982 9 156
1987053S15127 1987 19 SI WA ELSIE 1987-02-26 12:00:00 TS -22.8667 122.100 35 984 bom main 0 0 ______V___O_O_ -1 -22.7000 122.100 30 35 984 331 3 -23.2000 122.100 1 -22.7000 122.100 TC 30 984 9 134
1987053S15127 1987 19 SI WA ELSIE 1987-02-26 15:00:00 TS -23.1265 122.468 30 986 bom main 0 0 ______O___P_P_ -1 -23.0000 122.500 20 30 986 377 3 -23.3190 122.298 1 -23.0605 122.607 TC 30 986 9 121
1987053S15127 1987 19 SI WA ELSIE 1987-02-26 18:00:00 TS -23.3265 122.928 30 988 bom main 0 0 ______O___P_O_ -1 -23.3000 123.100 20 30 988 3 -23.3794 122.583 1 -23.3000 123.100 TC 30 988 7 114
1987053S15127 1987 19 SI WA ELSIE 1987-02-26 21:00:00 TS -23.4156 123.182 30 990 bom main 0 0 ______O___P_P_ -1 -23.4000 123.300 20 30 990 3 -23.4252 122.976 1 -23.4217 123.271 TC 30 990 6 108
1987053S15127 1987 19 SI WA ELSIE 1987-02-27 00:00:00 TS -23.5000 123.500 25 992 bom main 0 0 ______O___O_O_ -1 -23.5000 123.500 20 25 992 3 -23.5000 123.500 6 -23.5000 123.500 TC 30 992 10 102
1987053S15127 1987 19 SI WA ELSIE 1987-02-27 03:00:00 TS -23.6216 124.248 25 997 bom main 0 0 ______O___P_P_ -1 -23.6000 124.500 20 25 997 3 -23.6332 124.161 6 -23.6315 124.084 TC 30 995 13 103
1987053S15127 1987 19 SI WA ELSIE 1987-02-27 06:00:00 TS -23.8000 124.900 20 998 bom main 0 ______O___O_O_ -1 -23.8000 124.900 20 20 998 3 -23.8000 124.900 6 -23.8000 124.900 TC 30 998 12 107

IBTrACS Databaseについて

本データベースは、米国NOAAが公開する1842年以降の世界の熱帯低気圧のベストトラックデータアーカイブInternational Best Track Archive for Climate Stewardship (IBTrACS)を、ウェブで閲覧しやすい形式に変換したものです。

最終更新日:2021-10-21